Pittsburgh, Pennsylvania
Traffic Map
Current Weather Conditions
Pittsburgh, Pennsylvania
Broken Clouds
Broken Clouds
12°
Feels Like: 12°
Wind Chill: 12° Ceiling: 3200
Heat Index: 12° Visibility: 10mi
Dew Point: Wind: 14mph
Humidity: 74% Direction: 330° (NNW)
Pressure: 30in Gusts: 21mph
Raw Report DataKAGC 282353Z 33012G18KT 10SM FEW023 BKN032 12/07 A3000 RMK AO2 SLP166 60001 T01170072 10156 20117 51020
Traffic Incident Summary
Active as of:
Severity:
Category:
InformationThere was an issue retrieving the traffic information for this location. Please try a different location or try again shortly.
Advertisements
Track Severe Weather on mobile